Latest Coastal Weather Observations for Sydney Harbour

IDN60701

Issued at 9:02 am EST Tuesday 23 April 2024 (issued every 10 minutes, with the page automatically refreshed every 10 minutes)

About coastal observations | Map of coastal stations | Coastal observations for NSW | Marine services | Other Formats
Station Details ID: 066196 Name: WEDDING CAKE WEST Lat: -33.84 Lon: 151.26 Height: 6.0 m
Data from the previous 72 hours. | See also: Recent months at Sydney Harbour
Date/Time
EST
Wind Sea
Height
m
Swell Vis
km
Cloud Weather Temp
°C
Press
MSL
hPa
Rain since
9am
mm
Dir  Spd
kts
Gust
kts
Height
m
Period
s
Dir
23/09:00am WSW 8 9 - - - - - - - 18.5 - -
23/08:30am SW 7 8 - - - - - - - 17.6 - -
23/08:00am SW 6 7 - - - - - - - 17.3 - -
23/07:30am WSW 5 7 - - - - - - - 17.1 - -
23/07:00am SW 6 8 - - - - - - - 16.7 - -
23/06:30am W 5 7 - - - - - - - 17.4 - -
23/06:00am WSW 4 6 - - - - - - - 17.3 - -
23/05:30am W 5 7 - - - - - - - 17.2 - -
23/05:00am WSW 5 7 - - - - - - - 17.2 - -
23/04:30am W 5 6 - - - - - - - 17.2 - -
23/04:00am WSW 5 6 - - - - - - - 17.4 - -
23/03:30am SW 6 7 - - - - - - - 17.4 - -
23/03:00am WSW 4 6 - - - - - - - 17.3 - -
23/02:30am SW 3 5 - - - - - - - 17.4 - -
23/02:00am SW 4 5 - - - - - - - 17.3 - -
23/01:30am WSW 6 6 - - - - - - - 17.4 - -
23/01:00am WSW 6 7 - - - - - - - 17.7 - -
23/12:30am W 4 6 - - - - - - - 18.0 - -
23/12:00am WNW 1 3 - - - - - - - 18.3 - -
 
Date/Time
EST
Wind Sea
Height
m
Swell Vis
km
Cloud Weather Temp
°C
Press
MSL
hPa
Rain since
9am
mm
Dir  Spd
kts
Gust
kts
Height
m
Period
s
Dir
22/11:30pm SSE 3 4 - - - - - - - 18.3 - -
22/11:00pm ENE 1 4 - - - - - - - 18.4 - -
22/10:30pm CALM 0 0 - - - - - - - 18.4 - -
22/10:00pm CALM 0 3 - - - - - - - 18.7 - -
22/09:30pm N 3 4 - - - - - - - 18.5 - -
22/09:00pm CALM 0 0 - - - - - - - 18.8 - -
22/08:30pm N 1 3 - - - - - - - 19.4 - -
22/08:00pm N 4 5 - - - - - - - 19.7 - -
22/07:30pm N 4 5 - - - - - - - 19.8 - -
22/07:00pm ENE 3 4 - - - - - - - 19.9 - -
22/06:30pm ENE 3 5 - - - - - - - 20.4 - -
22/06:00pm E 5 6 - - - - - - - 20.4 - -
22/05:30pm ENE 6 7 - - - - - - - 20.6 - -
22/05:00pm ENE 6 8 - - - - - - - 20.8 - -
22/04:30pm ENE 6 7 - - - - - - - 21.0 - -
22/04:00pm ENE 7 8 - - - - - - - 21.2 - -
22/03:30pm E 7 9 - - - - - - - 22.3 - -
22/03:00pm E 8 9 - - - - - - - 22.2 - -
22/02:30pm ESE 6 7 - - - - - - - 23.0 - -
22/02:00pm SE 8 10 - - - - - - - 22.2 - -
22/01:30pm CALM 0 4 - - - - - - - 23.4 - -
22/01:00pm S 1 4 - - - - - - - 21.9 - -
22/12:30pm S 1 3 - - - - - - - 21.0 - -
22/12:00pm SW 4 6 - - - - - - - 20.5 - -
22/11:30am SSW 4 6 - - - - - - - 20.5 - -
22/11:00am SW 6 10 - - - - - - - 19.9 - -
22/10:30am WSW 7 9 - - - - - - - 19.3 - -
22/10:00am W 6 8 - - - - - - - 18.8 - -
22/09:30am WSW 7 8 - - - - - - - 17.9 - -
22/09:00am WSW 7 9 - - - - - - - 17.5 - -
22/08:30am W 8 9 - - - - - - - 17.0 - -
22/08:00am WSW 8 10 - - - - - - - 16.9 - -
22/07:30am W 7 9 - - - - - - - 16.5 - -
22/07:00am WSW 9 10 - - - - - - - 16.3 - -
22/06:30am WSW 8 10 - - - - - - - 16.5 - -
22/06:00am WSW 8 10 - - - - - - - 16.8 - -
22/05:30am WSW 7 9 - - - - - - - 16.6 - -
22/05:00am WSW 7 9 - - - - - - - 16.7 - -
22/04:30am SW 7 9 - - - - - - - 16.8 - -
22/04:00am WSW 7 9 - - - - - - - 16.7 - -
22/03:30am WSW 7 9 - - - - - - - 16.7 - -
22/03:00am WSW 9 11 - - - - - - - 16.7 - -
22/02:30am WSW 9 11 - - - - - - - 16.6 - -
22/02:00am WSW 7 9 - - - - - - - 16.4 - -
22/01:30am WSW 8 10 - - - - - - - 16.3 - -
22/01:00am WSW 6 8 - - - - - - - 17.1 - -
22/12:30am W 8 11 - - - - - - - 17.1 - -
22/12:00am W 8 10 - - - - - - - 17.2 - -
 
Date/Time
EST
Wind Sea
Height
m
Swell Vis
km
Cloud Weather Temp
°C
Press
MSL
hPa
Rain since
9am
mm
Dir  Spd
kts
Gust
kts
Height
m
Period
s
Dir
21/11:30pm W 7 8 - - - - - - - 17.7 - -
21/11:00pm W 6 7 - - - - - - - 18.3 - -
21/10:30pm WSW 7 8 - - - - - - - 18.5 - -
21/10:00pm WSW 6 7 - - - - - - - 18.7 - -
21/09:30pm WSW 4 5 - - - - - - - 18.5 - -
21/09:00pm SW 5 8 - - - - - - - 18.9 - -
21/08:30pm S 5 7 - - - - - - - 19.6 - -
21/08:00pm S 7 9 - - - - - - - 19.5 - -
21/07:30pm S 7 8 - - - - - - - 19.5 - -
21/07:00pm SSE 7 9 - - - - - - - 19.4 - -
21/06:30pm SSE 7 9 - - - - - - - 19.5 - -
21/06:00pm S 9 12 - - - - - - - 19.5 - -
21/05:30pm S 8 10 - - - - - - - 19.6 - -
21/05:00pm S 9 11 - - - - - - - 19.9 - -
21/04:30pm S 9 12 - - - - - - - 19.9 - -
21/04:00pm S 9 12 - - - - - - - 19.8 - -
21/03:30pm SSW 12 15 - - - - - - - 19.9 - -
21/03:00pm S 13 16 - - - - - - - 19.8 - -
21/02:30pm S 13 16 - - - - - - - 20.0 - -
21/02:00pm SSW 13 16 - - - - - - - 19.7 - -
21/01:30pm S 13 18 - - - - - - - 20.0 - -
21/01:00pm S 14 18 - - - - - - - 19.8 - -
21/12:30pm S 13 17 - - - - - - - 20.2 - -
21/12:00pm S 14 17 - - - - - - - 20.4 - -
21/11:30am S 14 18 - - - - - - - 20.1 - -
21/11:00am S 14 19 - - - - - - - 20.0 - -
21/10:30am SSW 15 21 - - - - - - - 19.8 - -
21/10:00am SSW 15 19 - - - - - - - 19.5 - -
21/09:30am SSW 15 18 - - - - - - - 19.6 - -
21/09:00am SSW 17 21 - - - - - - - 19.3 - -
21/08:30am SW 11 17 - - - - - - - 19.2 - -
21/08:00am WSW 12 17 - - - - - - - 17.4 - -
21/07:30am WSW 11 14 - - - - - - - 18.0 - -
21/07:00am SSW 12 16 - - - - - - - 19.4 - -
21/06:30am S 13 17 - - - - - - - 19.2 - -
21/06:00am SSW 17 22 - - - - - - - 19.3 - -
21/05:30am S 14 22 - - - - - - - 19.1 - -
21/05:00am S 15 22 - - - - - - - 19.0 - -
21/04:30am S 14 18 - - - - - - - 19.1 - -
21/04:00am S 16 20 - - - - - - - 19.4 - -
21/03:30am SSW 16 21 - - - - - - - 19.2 - -
21/03:00am S 17 21 - - - - - - - 19.4 - -
21/02:30am S 12 15 - - - - - - - 19.6 - -
21/02:00am S 15 21 - - - - - - - 19.6 - -
21/01:30am S 15 21 - - - - - - - 19.6 - -
21/01:00am S 15 19 - - - - - - - 19.7 - -
21/12:30am S 16 21 - - - - - - - 19.6 - -
21/12:00am S 15 19 - - - - - - - 19.6 - -
 
Date/Time
EST
Wind Sea
Height
m
Swell Vis
km
Cloud Weather Temp
°C
Press
MSL
hPa
Rain since
9am
mm
Dir  Spd
kts
Gust
kts
Height
m
Period
s
Dir
20/11:30pm S 19 25 - - - - - - - 19.8 - -
20/11:00pm S 15 21 - - - - - - - 19.8 - -
20/10:30pm S 16 22 - - - - - - - 19.7 - -
20/10:00pm S 20 27 - - - - - - - 19.7 - -
20/09:30pm S 18 24 - - - - - - - 19.7 - -
20/09:00pm S 18 23 - - - - - - - 19.7 - -
20/08:45pm S 17 27 - - - - - - - 19.7 - -
20/08:30pm S 20 25 - - - - - - - 19.8 - -
20/08:14pm S 19 29 - - - - - - - 19.9 - -
20/08:00pm S 20 27 - - - - - - - 19.9 - -
20/07:44pm S 22 32 - - - - - - - 19.9 - -
20/07:30pm S 21 28 - - - - - - - 20.0 - -
20/07:00pm S 20 27 - - - - - - - 20.0 - -
20/06:55pm S 21 31 - - - - - - - 20.0 - -
20/06:30pm S 20 30 - - - - - - - 19.6 - -
20/06:27pm S 20 30 - - - - - - - 19.6 - -
20/06:00pm SSW 19 24 - - - - - - - 19.2 - -
20/05:30pm SSW 21 26 - - - - - - - 18.8 - -
20/05:00pm SSW 19 26 - - - - - - - 18.7 - -
20/04:30pm SSW 19 27 - - - - - - - 18.6 - -
20/04:00pm SSW 21 27 - - - - - - - 17.9 - -
20/03:30pm SSW 21 27 - - - - - - - 18.7 - -
20/03:03pm SSW 21 31 - - - - - - - 18.9 - -
20/03:00pm SSW 20 29 - - - - - - - 19.1 - -
20/02:30pm SSW 23 29 - - - - - - - 19.0 - -
20/02:00pm SSW 21 29 - - - - - - - 18.5 - -
20/01:30pm SW 21 27 - - - - - - - 18.4 - -
20/01:00pm SSW 26 32 - - - - - - - 18.4 - -
20/12:32pm SSW 18 28 - - - - - - - 16.9 - -
20/12:30pm SSW 18 23 - - - - - - - 17.3 - -
20/12:06pm SSW 20 30 - - - - - - - 17.3 - -
20/12:00pm SSW 19 25 - - - - - - - 17.6 - -
20/11:43am SW 19 30 - - - - - - - 18.2 - -
20/11:30am SW 17 25 - - - - - - - 17.5 - -
20/11:00am SW 21 26 - - - - - - - 16.8 - -
20/10:30am SSW 25 30 - - - - - - - 17.7 - -
20/10:19am SSW 23 33 - - - - - - - 18.4 - -
20/10:00am SSW 22 29 - - - - - - - 18.5 - -
20/09:32am SSW 21 31 - - - - - - - 18.8 - -
20/09:30am SSW 20 25 - - - - - - - 18.6 - -

Other formats

Comma delimited format used in spreadsheet applications
http://www.bom.gov.au/fwo/IDN60701/IDN60701.95766.axf

JavaScript Object Notation format (JSON) in row-major order
http://www.bom.gov.au/fwo/IDN60701/IDN60701.95766.json

Data quality

Most of these data are generated automatically and are frequently updated. Quality checks on data are not normally performed. It is possible for incorrect values to appear. Refer to information at About Latest Weather Observations and please check the disclaimer before using these data.